Time;durP1;ratioP1;P1;durP2;ratioP2;P2;SDS_P1;SDS_P2;PMS_P1;PMS_P2;Temp;Humidity;BMP_temperature;BMP_pressure;BME280_temperature;BME280_humidity;BME280_pressure;Samples;Min_cycle;Max_cycle;Signal;HPM_P1;HPM_P2
2021/12/29 00:00:14;;;;;;;2.65;1.00;;;9.20;94.20;;;;;;6069805;23;20010;-85
2021/12/29 00:02:40;;;;;;;1.52;0.70;;;9.30;94.30;;;;;;6093717;23;20515;-85
2021/12/29 00:05:07;;;;;;;1.88;0.80;;;9.20;94.20;;;;;;6094616;23;20033;-85
2021/12/29 00:07:33;;;;;;;2.00;1.10;;;9.20;94.20;;;;;;6094564;23;20125;-85
2021/12/29 00:10:01;;;;;;;1.15;0.70;;;9.30;94.20;;;;;;6119101;23;20010;-85
2021/12/29 00:12:27;;;;;;;1.67;1.00;;;9.20;94.20;;;;;;6118338;23;20475;-85
2021/12/29 00:14:55;;;;;;;1.33;0.90;;;9.20;94.20;;;;;;6094279;23;20020;-85
2021/12/29 00:17:21;;;;;;;2.85;1.20;;;9.20;94.20;;;;;;6070023;23;20080;-85
2021/12/29 00:19:47;;;;;;;3.08;1.23;;;9.20;94.20;;;;;;6070208;23;20014;-84
2021/12/29 00:22:13;;;;;;;1.02;0.80;;;9.30;94.20;;;;;;6094296;23;20446;-84
2021/12/29 00:24:39;;;;;;;1.20;0.93;;;9.30;94.20;;;;;;6094402;23;20014;-86
2021/12/29 00:27:06;;;;;;;1.30;1.05;;;9.30;94.20;;;;;;6094423;23;20010;-85
2021/12/29 00:29:32;;;;;;;1.38;1.02;;;9.30;94.20;;;;;;6118917;23;20014;-85
2021/12/29 00:31:58;;;;;;;1.77;1.00;;;9.20;94.20;;;;;;6119185;23;20046;-85
2021/12/29 00:34:24;;;;;;;1.48;0.90;;;9.30;94.20;;;;;;6070608;23;20438;-85
2021/12/29 00:36:50;;;;;;;0.60;0.60;;;9.30;94.20;;;;;;6070424;23;20002;-85
2021/12/29 00:39:15;;;;;;;2.13;1.00;;;9.30;94.20;;;;;;6070451;23;20487;-85
2021/12/29 00:41:41;;;;;;;1.17;0.90;;;9.10;94.20;;;;;;6070399;23;20009;-85
2021/12/29 00:44:08;;;;;;;2.05;0.98;;;9.20;94.20;;;;;;6119250;23;20002;-85
2021/12/29 00:46:38;;;;;;;1.27;0.90;;;9.20;94.20;;;;;;6095324;23;19998;-85
2021/12/29 00:49:05;;;;;;;1.85;1.13;;;9.10;94.20;;;;;;6095398;23;20005;-86
2021/12/29 00:51:31;;;;;;;2.92;1.00;;;9.20;94.30;;;;;;6070703;23;20029;-86
2021/12/29 00:53:57;;;;;;;1.77;1.10;;;9.10;94.30;;;;;;6094497;23;20086;-86
2021/12/29 00:56:23;;;;;;;1.60;0.90;;;9.20;94.30;;;;;;6094836;23;20495;-86
2021/12/29 00:58:49;;;;;;;1.42;0.80;;;9.30;94.30;;;;;;6094225;23;20095;-86
2021/12/29 01:01:14;;;;;;;1.67;1.10;;;9.10;94.30;;;;;;6071048;23;20014;-86
2021/12/29 01:03:43;;;;;;;1.58;1.00;;;9.20;94.30;;;;;;6094499;23;20013;-86
2021/12/29 01:06:09;;;;;;;2.17;1.30;;;9.20;94.30;;;;;;6092764;23;20014;-86
2021/12/29 01:08:35;;;;;;;1.65;0.90;;;9.10;94.30;;;;;;6120032;23;20087;-86
2021/12/29 01:11:02;;;;;;;1.63;1.00;;;9.20;94.30;;;;;;6070662;23;20064;-86
2021/12/29 01:13:31;;;;;;;1.85;1.00;;;9.20;94.30;;;;;;6070516;23;20014;-86
2021/12/29 01:16:16;;;;;;;2.85;1.05;;;9.20;94.40;;;;;;6069560;23;20010;-87
2021/12/29 01:18:43;;;;;;;2.03;1.10;;;9.20;94.40;;;;;;6117101;23;20006;-86
2021/12/29 01:21:10;;;;;;;1.77;1.00;;;9.30;94.40;;;;;;6068258;23;20020;-86
2021/12/29 01:23:36;;;;;;;1.73;0.95;;;9.20;94.40;;;;;;6091456;23;20134;-86
2021/12/29 01:26:03;;;;;;;1.65;0.80;;;9.30;94.40;;;;;;6093192;23;20529;-86
2021/12/29 01:28:28;;;;;;;2.47;0.85;;;9.30;94.40;;;;;;6068526;23;20041;-86
2021/12/29 01:30:55;;;;;;;1.88;1.10;;;9.20;94.40;;;;;;6067862;23;20010;-86
2021/12/29 01:33:22;;;;;;;1.55;0.70;;;9.20;94.40;;;;;;6094135;23;20006;-85
2021/12/29 01:35:48;;;;;;;2.30;1.10;;;9.20;94.40;;;;;;6093721;23;19995;-87
2021/12/29 01:38:14;;;;;;;1.77;1.02;;;9.20;94.40;;;;;;6092764;23;20013;-87
2021/12/29 01:40:40;;;;;;;1.73;0.82;;;9.20;94.40;;;;;;6068042;23;20329;-86
2021/12/29 01:43:08;;;;;;;1.50;1.05;;;9.20;94.40;;;;;;6118416;23;20036;-86
2021/12/29 01:45:36;;;;;;;2.63;1.17;;;9.20;94.40;;;;;;6094341;23;20017;-85
2021/12/29 01:48:04;;;;;;;2.13;1.17;;;9.20;94.40;;;;;;6069362;23;20017;-86
2021/12/29 01:50:31;;;;;;;3.10;1.30;;;9.20;94.40;;;;;;6197127;23;20014;-87
2021/12/29 01:53:03;;;;;;;2.53;1.02;;;9.20;94.30;;;;;;6092913;23;20021;-87
2021/12/29 01:55:30;;;;;;;2.67;1.48;;;9.30;94.40;;;;;;6071004;23;20024;-86
2021/12/29 01:57:58;;;;;;;1.40;0.82;;;9.20;94.30;;;;;;6068272;23;20006;-85
2021/12/29 02:00:27;;;;;;;2.80;1.38;;;9.10;94.30;;;;;;6069451;23;20089;-86
2021/12/29 02:02:53;;;;;;;1.80;1.05;;;9.30;94.40;;;;;;6093486;23;20461;-86
2021/12/29 02:05:19;;;;;;;1.77;1.17;;;9.30;94.40;;;;;;6116691;23;20006;-86
2021/12/29 02:07:45;;;;;;;1.20;0.80;;;9.30;94.30;;;;;;6092009;23;20433;-86
2021/12/29 02:10:14;;;;;;;1.95;1.00;;;9.40;94.40;;;;;;6111610;23;20096;-86
2021/12/29 02:12:41;;;;;;;1.65;1.00;;;9.20;94.30;;;;;;6094167;23;20016;-85
2021/12/29 02:15:08;;;;;;;1.83;1.00;;;9.30;94.40;;;;;;6117018;23;20018;-86
2021/12/29 02:17:34;;;;;;;2.13;0.95;;;9.20;94.40;;;;;;6119326;23;20052;-86
2021/12/29 02:20:03;;;;;;;3.30;1.10;;;9.30;94.40;;;;;;6092928;23;20092;-86
2021/12/29 02:22:38;;;;;;;2.05;0.80;;;9.40;94.40;;;;;;6069069;23;20437;-86
2021/12/29 02:27:49;;;;;;;2.65;1.00;;;9.30;94.40;;;;;;6097037;23;20022;-86
2021/12/29 02:30:17;;;;;;;2.40;1.05;;;9.20;94.40;;;;;;6092243;23;20010;-86
2021/12/29 02:32:43;;;;;;;1.50;0.82;;;9.20;94.40;;;;;;6095442;23;20032;-86
2021/12/29 02:35:11;;;;;;;0.90;0.77;;;9.20;94.40;;;;;;6068407;23;20797;-86
2021/12/29 02:37:38;;;;;;;1.35;0.80;;;9.20;94.50;;;;;;6093321;23;20330;-85
2021/12/29 02:40:06;;;;;;;2.92;0.80;;;9.20;94.40;;;;;;6067751;23;20013;-85
2021/12/29 02:42:39;;;;;;;2.53;1.02;;;9.20;94.50;;;;;;6067528;23;20460;-85
2021/12/29 02:45:07;;;;;;;0.98;0.60;;;9.20;94.50;;;;;;6116505;23;20014;-85
2021/12/29 02:47:33;;;;;;;1.40;0.60;;;9.20;94.50;;;;;;6068303;23;20014;-85
2021/12/29 02:49:59;;;;;;;3.67;0.90;;;9.20;94.50;;;;;;6117189;23;20397;-86
2021/12/29 02:52:25;;;;;;;1.55;0.52;;;9.30;94.50;;;;;;6092953;23;20022;-85
2021/12/29 02:54:52;;;;;;;2.65;0.80;;;9.20;94.50;;;;;;6092165;23;20014;-85
2021/12/29 02:57:18;;;;;;;1.95;0.50;;;9.20;94.50;;;;;;6066947;23;20016;-85
2021/12/29 02:59:44;;;;;;;1.48;0.65;;;9.20;94.50;;;;;;6117597;23;20084;-85
2021/12/29 03:02:10;;;;;;;1.63;0.82;;;9.20;94.50;;;;;;6092886;23;20093;-85
2021/12/29 03:04:36;;;;;;;3.17;0.70;;;9.20;94.50;;;;;;6092653;23;20048;-85
2021/12/29 03:07:03;;;;;;;0.73;0.65;;;9.10;94.50;;;;;;6066484;23;20016;-85
2021/12/29 03:09:29;;;;;;;0.40;0.40;;;9.10;94.50;;;;;;6093395;23;20014;-86
2021/12/29 03:11:55;;;;;;;1.65;0.68;;;9.10;94.50;;;;;;6091730;23;20006;-85
2021/12/29 03:14:21;;;;;;;0.85;0.65;;;9.20;94.50;;;;;;6067452;23;20000;-85
2021/12/29 03:16:47;;;;;;;1.80;0.82;;;9.10;94.50;;;;;;6069209;23;20013;-85
2021/12/29 03:19:13;;;;;;;2.75;0.68;;;9.20;94.60;;;;;;6092798;23;20033;-85
2021/12/29 03:21:40;;;;;;;0.95;0.57;;;9.20;94.60;;;;;;6067211;23;20311;-85
2021/12/29 03:24:06;;;;;;;0.95;0.68;;;9.20;94.60;;;;;;6121661;23;20017;-85
2021/12/29 03:26:33;;;;;;;2.33;0.93;;;9.20;94.60;;;;;;6070855;23;20014;-85
2021/12/29 03:28:59;;;;;;;2.50;0.93;;;9.10;94.50;;;;;;6121469;23;20014;-85
2021/12/29 03:31:27;;;;;;;2.45;1.00;;;9.00;94.50;;;;;;6069328;23;20016;-85
2021/12/29 03:33:53;;;;;;;2.55;0.93;;;9.20;94.60;;;;;;6069134;23;20101;-85
2021/12/29 03:36:20;;;;;;;1.67;0.90;;;9.10;94.50;;;;;;6094921;23;20014;-85
2021/12/29 03:38:48;;;;;;;2.85;1.00;;;9.10;94.50;;;;;;6094918;23;20024;-85
2021/12/29 03:41:17;;;;;;;1.83;1.05;;;9.10;94.50;;;;;;6094171;23;20018;-85
2021/12/29 03:43:44;;;;;;;2.72;1.50;;;9.00;94.50;;;;;;6093608;23;20059;-85
2021/12/29 03:46:11;;;;;;;3.00;1.50;;;9.10;94.50;;;;;;6068833;23;20010;-85
2021/12/29 03:48:40;;;;;;;3.00;1.40;;;9.20;94.50;;;;;;6116094;23;20346;-85
2021/12/29 03:51:06;;;;;;;2.25;1.00;;;9.20;94.50;;;;;;6070764;23;20017;-85
2021/12/29 03:53:32;;;;;;;2.78;1.23;;;9.10;94.50;;;;;;6118021;23;20095;-85
2021/12/29 03:55:58;;;;;;;2.55;1.35;;;9.10;94.50;;;;;;6069086;23;20014;-85
2021/12/29 03:58:26;;;;;;;1.92;1.20;;;9.10;94.50;;;;;;6092119;23;20442;-85
2021/12/29 04:00:55;;;;;;;2.35;1.23;;;9.10;94.50;;;;;;6067812;23;20519;-85
2021/12/29 04:03:21;;;;;;;4.97;1.42;;;9.20;94.50;;;;;;6094157;23;20048;-85
2021/12/29 04:05:47;;;;;;;4.05;1.20;;;9.10;94.50;;;;;;6069628;23;20010;-85
2021/12/29 04:08:13;;;;;;;3.10;1.40;;;9.10;94.50;;;;;;6120353;23;20025;-86
2021/12/29 04:10:39;;;;;;;3.50;1.45;;;9.10;94.50;;;;;;6120643;23;20042;-85
2021/12/29 04:13:05;;;;;;;1.70;1.17;;;9.10;94.50;;;;;;6070657;23;20033;-85
2021/12/29 04:15:33;;;;;;;1.45;1.00;;;9.10;94.50;;;;;;6093775;23;20037;-86
2021/12/29 04:18:03;;;;;;;1.73;1.10;;;9.10;94.50;;;;;;6069987;23;20571;-85
2021/12/29 04:23:17;;;;;;;1.85;1.00;;;9.10;94.50;;;;;;6098931;23;20071;-85
2021/12/29 04:25:48;;;;;;;2.53;1.02;;;9.10;94.50;;;;;;6092318;23;20018;-85
2021/12/29 04:28:16;;;;;;;2.22;1.00;;;9.20;94.50;;;;;;6070668;23;20438;-85
2021/12/29 04:30:42;;;;;;;2.10;1.20;;;9.00;94.40;;;;;;6093491;23;20093;-85
2021/12/29 04:33:08;;;;;;;5.13;1.50;;;9.00;94.50;;;;;;6070199;23;20010;-85
2021/12/29 04:35:34;;;;;;;2.15;0.90;;;9.10;94.50;;;;;;6093410;23;20014;-85
2021/12/29 04:38:00;;;;;;;1.70;1.10;;;9.00;94.40;;;;;;6092581;23;20102;-85
2021/12/29 04:40:26;;;;;;;1.70;1.00;;;9.00;94.50;;;;;;6116081;23;20323;-84
2021/12/29 04:42:52;;;;;;;2.53;0.88;;;9.00;94.50;;;;;;6069588;23;20079;-85
2021/12/29 04:45:18;;;;;;;1.88;1.10;;;9.10;94.50;;;;;;6093575;23;20022;-85
2021/12/29 04:47:46;;;;;;;0.88;0.70;;;9.10;94.50;;;;;;6092208;23;20094;-85
2021/12/29 04:50:37;;;;;;;1.00;0.90;;;9.00;94.50;;;;;;6092427;23;20070;-85
2021/12/29 04:53:02;;;;;;;2.13;1.00;;;9.00;94.50;;;;;;6116637;23;20020;-85
2021/12/29 04:55:29;;;;;;;1.52;0.93;;;9.00;94.50;;;;;;6091766;23;20010;-85
2021/12/29 04:57:57;;;;;;;1.75;0.90;;;9.00;94.50;;;;;;6070116;23;20085;-85
2021/12/29 05:00:24;;;;;;;3.15;0.93;;;9.00;94.50;;;;;;6117328;23;20345;-85
2021/12/29 05:02:51;;;;;;;1.70;1.10;;;9.10;94.60;;;;;;6068926;23;20002;-85
2021/12/29 05:05:22;;;;;;;1.83;0.90;;;9.00;94.50;;;;;;6093390;23;20013;-85
2021/12/29 05:10:29;;;;;;;2.28;0.90;;;9.00;94.50;;;;;;6118740;23;20060;-85
2021/12/29 05:12:55;;;;;;;1.92;0.98;;;9.00;94.50;;;;;;6070263;23;20018;-85
2021/12/29 05:15:20;;;;;;;1.30;1.00;;;9.10;94.50;;;;;;6070094;23;20045;-85
2021/12/29 05:17:46;;;;;;;1.15;0.82;;;9.00;94.70;;;;;;6119207;23;20006;-84
2021/12/29 05:20:12;;;;;;;1.58;0.98;;;9.00;94.40;;;;;;6094706;23;20013;-85
2021/12/29 05:22:38;;;;;;;1.35;0.98;;;9.00;94.40;;;;;;6094333;23;20055;-85
2021/12/29 05:25:04;;;;;;;1.02;0.80;;;9.00;94.50;;;;;;6069950;23;20010;-85
2021/12/29 05:27:30;;;;;;;1.23;0.80;;;9.10;94.50;;;;;;6096276;23;20493;-85
2021/12/29 05:29:56;;;;;;;1.42;0.90;;;8.90;94.40;;;;;;6094365;23;20050;-85
2021/12/29 05:32:22;;;;;;;1.25;1.05;;;8.90;94.40;;;;;;6094101;23;20013;-85
2021/12/29 05:34:48;;;;;;;1.30;0.88;;;9.00;94.40;;;;;;6094507;23;20022;-85
2021/12/29 05:37:14;;;;;;;1.60;1.00;;;9.00;94.50;;;;;;6094724;23;20026;-85
2021/12/29 05:39:40;;;;;;;1.55;0.95;;;9.00;94.50;;;;;;6119164;23;20423;-85
2021/12/29 05:42:06;;;;;;;1.33;0.80;;;9.00;94.50;;;;;;6070366;23;20438;-85
2021/12/29 05:44:31;;;;;;;2.20;1.25;;;9.00;94.50;;;;;;6094218;23;20010;-85
2021/12/29 05:46:57;;;;;;;2.35;1.15;;;9.10;94.50;;;;;;6094225;23;20650;-85
2021/12/29 05:49:24;;;;;;;1.65;1.05;;;9.00;94.50;;;;;;6118270;23;20334;-85
2021/12/29 05:51:49;;;;;;;1.95;1.00;;;9.00;94.80;;;;;;6095178;23;20010;-85
2021/12/29 05:54:15;;;;;;;3.08;1.40;;;9.00;94.50;;;;;;6069747;23;20002;-85
2021/12/29 05:56:41;;;;;;;2.15;1.30;;;9.10;94.60;;;;;;6094192;23;20006;-85
2021/12/29 05:59:07;;;;;;;2.55;1.42;;;9.00;94.50;;;;;;6071085;23;20006;-85
2021/12/29 06:01:33;;;;;;;2.80;1.45;;;9.00;94.50;;;;;;6094251;23;20033;-85
2021/12/29 06:03:59;;;;;;;3.70;1.48;;;9.00;94.50;;;;;;6072514;23;20020;-85
2021/12/29 06:06:24;;;;;;;1.88;1.30;;;8.90;94.50;;;;;;6070169;23;20013;-85
2021/12/29 06:08:50;;;;;;;2.55;1.35;;;9.00;94.50;;;;;;6094292;23;20338;-84
2021/12/29 06:11:16;;;;;;;2.03;1.25;;;9.00;94.50;;;;;;6094768;23;20030;-85
2021/12/29 06:13:41;;;;;;;2.13;1.17;;;9.00;94.50;;;;;;6069377;23;20006;-85
2021/12/29 06:16:07;;;;;;;1.88;1.17;;;9.00;94.50;;;;;;6069666;23;20006;-85
2021/12/29 06:18:33;;;;;;;2.38;1.08;;;9.00;94.50;;;;;;6069646;23;20006;-85
2021/12/29 06:20:59;;;;;;;1.88;1.10;;;9.00;94.50;;;;;;6069581;23;20014;-85
2021/12/29 06:23:25;;;;;;;1.60;1.05;;;9.00;94.50;;;;;;6119507;23;20037;-84
2021/12/29 06:25:50;;;;;;;2.47;1.38;;;9.00;94.50;;;;;;6094619;23;20327;-85
2021/12/29 06:28:16;;;;;;;2.35;1.13;;;9.10;94.60;;;;;;6069312;23;20021;-86
2021/12/29 06:30:42;;;;;;;1.40;1.00;;;9.00;94.50;;;;;;6117969;23;20014;-84
2021/12/29 06:33:08;;;;;;;1.75;1.20;;;9.00;94.50;;;;;;6118708;23;20006;-85
2021/12/29 06:35:34;;;;;;;2.15;1.23;;;9.00;94.50;;;;;;6070153;23;20063;-85
2021/12/29 06:38:00;;;;;;;2.40;1.20;;;9.10;94.50;;;;;;6095187;23;20059;-85
2021/12/29 06:40:25;;;;;;;2.40;1.48;;;9.00;94.50;;;;;;6118228;23;20010;-85
2021/12/29 06:42:51;;;;;;;2.67;1.30;;;9.10;94.50;;;;;;6094260;23;20088;-86
2021/12/29 06:45:17;;;;;;;2.15;1.33;;;9.00;94.50;;;;;;6070236;23;20812;-85
2021/12/29 06:47:43;;;;;;;3.20;1.60;;;8.90;94.50;;;;;;6070180;23;20515;-85
2021/12/29 06:50:09;;;;;;;3.13;1.70;;;9.00;94.50;;;;;;6094516;23;20438;-86
2021/12/29 06:52:35;;;;;;;5.38;2.05;;;9.00;94.50;;;;;;6117666;23;20093;-86
2021/12/29 06:55:02;;;;;;;3.38;1.42;;;9.00;94.50;;;;;;6117823;23;20020;-86
2021/12/29 06:57:28;;;;;;;2.55;1.40;;;9.00;94.50;;;;;;6094338;23;20314;-86
2021/12/29 06:59:53;;;;;;;2.50;1.50;;;8.90;94.50;;;;;;6093916;23;20092;-86
2021/12/29 07:02:19;;;;;;;2.90;1.63;;;9.00;94.50;;;;;;6117843;23;20088;-86
2021/12/29 07:04:45;;;;;;;3.20;1.45;;;9.00;94.60;;;;;;6117725;23;20045;-85
2021/12/29 07:07:11;;;;;;;3.47;1.60;;;8.90;94.60;;;;;;6094491;23;20041;-86
2021/12/29 07:09:37;;;;;;;3.03;1.45;;;9.00;94.60;;;;;;6093614;23;20017;-86
2021/12/29 07:12:04;;;;;;;3.10;1.30;;;8.90;94.80;;;;;;6117664;23;20041;-86
2021/12/29 07:14:30;;;;;;;1.90;1.20;;;8.90;94.60;;;;;;6068813;23;20097;-86
2021/12/29 07:16:55;;;;;;;4.43;1.70;;;9.20;94.60;;;;;;6069381;23;20044;-86
2021/12/29 07:19:21;;;;;;;2.88;1.38;;;8.90;94.60;;;;;;6116616;23;20607;-86
2021/12/29 07:21:48;;;;;;;2.05;1.27;;;8.90;94.50;;;;;;6069294;23;20105;-85
2021/12/29 07:24:16;;;;;;;2.78;1.35;;;9.00;94.60;;;;;;6093506;23;20009;-86
2021/12/29 07:26:42;;;;;;;2.97;1.50;;;8.90;94.60;;;;;;6094016;23;20009;-85
2021/12/29 07:29:08;;;;;;;1.75;1.25;;;9.00;94.60;;;;;;6068392;23;20024;-85
2021/12/29 07:31:34;;;;;;;3.40;1.40;;;9.00;94.60;;;;;;6119109;23;20093;-85
2021/12/29 07:34:00;;;;;;;3.20;1.30;;;8.90;94.60;;;;;;6195607;23;20453;-86
2021/12/29 07:36:26;;;;;;;2.67;1.48;;;8.90;94.60;;;;;;6068753;23;20006;-86
2021/12/29 07:38:52;;;;;;;2.17;1.42;;;9.00;94.60;;;;;;6092950;23;20075;-85
2021/12/29 07:41:17;;;;;;;3.58;1.30;;;8.90;94.60;;;;;;6093078;23;20010;-86
2021/12/29 07:43:44;;;;;;;2.42;1.30;;;9.00;94.60;;;;;;6095612;23;20014;-89
2021/12/29 07:46:35;;;;;;;2.35;1.33;;;8.90;94.60;;;;;;6032164;23;20015;-88
2021/12/29 07:49:09;;;;;;;3.78;1.63;;;8.80;94.60;;;;;;6014016;23;20011;-86
2021/12/29 07:51:58;;;;;;;2.47;1.30;;;8.80;94.60;;;;;;6016190;23;20047;-89
2021/12/29 07:54:34;;;;;;;2.80;1.35;;;8.90;94.60;;;;;;5984859;23;20021;-89
2021/12/29 07:57:03;;;;;;;3.22;1.38;;;8.90;94.60;;;;;;5928673;23;20043;-87
2021/12/29 07:59:28;;;;;;;1.52;1.05;;;8.80;94.60;;;;;;5928052;23;20087;-86
2021/12/29 08:01:54;;;;;;;1.67;1.13;;;8.90;94.60;;;;;;5927390;23;20043;-85
2021/12/29 08:04:20;;;;;;;2.72;1.45;;;8.80;94.60;;;;;;5973472;23;20104;-84
2021/12/29 08:06:46;;;;;;;2.97;1.33;;;8.80;94.60;;;;;;5950173;23;20424;-83
2021/12/29 08:09:13;;;;;;;2.08;1.30;;;8.80;94.60;;;;;;5949964;23;20013;-83
2021/12/29 08:11:40;;;;;;;2.70;1.60;;;8.80;94.60;;;;;;5951279;23;20023;-83
2021/12/29 08:14:06;;;;;;;3.53;1.55;;;8.80;94.60;;;;;;5951409;23;20024;-83
2021/12/29 08:16:33;;;;;;;2.63;1.58;;;8.80;94.60;;;;;;5941721;23;20441;-84
2021/12/29 08:18:58;;;;;;;3.38;1.60;;;8.90;94.70;;;;;;6028422;23;20408;-84
2021/12/29 08:21:24;;;;;;;2.42;1.17;;;8.70;94.60;;;;;;6099534;23;20006;-84
2021/12/29 08:23:50;;;;;;;2.50;1.55;;;8.80;94.60;;;;;;6186871;23;20468;-84
2021/12/29 08:26:16;;;;;;;2.45;1.25;;;8.80;94.60;;;;;;6161714;23;20013;-84
2021/12/29 08:28:42;;;;;;;3.45;1.42;;;8.90;94.70;;;;;;6126089;23;20097;-84
2021/12/29 08:31:08;;;;;;;1.90;1.33;;;8.80;94.60;;;;;;6092873;23;20048;-84
2021/12/29 08:33:37;;;;;;;2.40;1.40;;;8.80;94.60;;;;;;6092579;23;20315;-84
2021/12/29 08:36:06;;;;;;;3.20;1.58;;;8.80;94.60;;;;;;6093281;23;20005;-84
2021/12/29 08:38:32;;;;;;;2.53;1.45;;;8.90;94.70;;;;;;6120236;23;20021;-83
2021/12/29 08:40:58;;;;;;;2.08;1.27;;;9.00;94.70;;;;;;6118384;23;20006;-84
2021/12/29 08:43:24;;;;;;;3.85;1.67;;;8.80;94.60;;;;;;6093200;23;20381;-84
2021/12/29 08:45:50;;;;;;;3.03;1.50;;;8.90;94.60;;;;;;6116529;23;20008;-84
2021/12/29 08:48:16;;;;;;;2.67;1.48;;;8.70;94.60;;;;;;6091724;23;20009;-84
2021/12/29 08:50:43;;;;;;;2.63;1.38;;;8.90;94.60;;;;;;6069472;23;20010;-84
2021/12/29 08:53:09;;;;;;;2.95;1.67;;;8.90;94.60;;;;;;6093701;23;20085;-88
2021/12/29 08:56:21;;;;;;;2.25;1.50;;;8.90;94.60;;;;;;6093030;23;20033;-87
2021/12/29 08:59:31;;;;;;;2.85;1.70;;;8.90;94.70;;;;;;6124957;23;20034;-89
2021/12/29 09:01:58;;;;;;;3.22;1.45;;;8.90;94.60;;;;;;5926290;24;20021;-88
2021/12/29 09:04:26;;;;;;;4.07;1.90;;;8.80;94.60;;;;;;5924391;24;20092;-87
2021/12/29 09:06:52;;;;;;;3.47;1.70;;;8.70;94.60;;;;;;5926073;24;20014;-87
2021/12/29 09:09:19;;;;;;;4.22;1.63;;;8.80;94.60;;;;;;5902430;24;20024;-85
2021/12/29 09:11:47;;;;;;;4.18;2.10;;;8.80;94.60;;;;;;5902522;24;20029;-86
2021/12/29 09:14:13;;;;;;;5.57;1.92;;;8.80;94.60;;;;;;5925534;24;20148;-86
2021/12/29 09:16:46;;;;;;;3.65;2.10;;;8.80;94.60;;;;;;5925227;24;20019;-85
2021/12/29 09:19:13;;;;;;;4.18;1.88;;;8.90;94.70;;;;;;5912451;24;20331;-84
2021/12/29 09:21:43;;;;;;;3.90;2.05;;;8.80;94.60;;;;;;5942721;24;20012;-86
2021/12/29 09:24:13;;;;;;;3.50;1.83;;;8.80;94.60;;;;;;5918742;24;20009;-86
2021/12/29 09:26:39;;;;;;;3.40;1.88;;;8.90;94.60;;;;;;5927891;23;20026;-85
2021/12/29 09:29:10;;;;;;;3.10;1.35;;;8.90;94.60;;;;;;5978584;24;20005;-84
2021/12/29 09:31:36;;;;;;;2.83;1.50;;;8.90;94.60;;;;;;5926061;24;20020;-85
2021/12/29 09:34:12;;;;;;;2.75;1.50;;;8.90;94.60;;;;;;5999854;23;20021;-87
2021/12/29 09:36:38;;;;;;;3.42;1.65;;;8.90;94.60;;;;;;5992062;23;20090;-82
2021/12/29 09:39:04;;;;;;;2.97;1.77;;;8.90;94.60;;;;;;5999588;23;20023;-79
2021/12/29 09:41:31;;;;;;;3.75;1.90;;;9.00;94.60;;;;;;6039523;23;20071;-79
2021/12/29 09:43:57;;;;;;;3.50;1.60;;;9.00;94.60;;;;;;6038334;23;20023;-79
2021/12/29 09:46:23;;;;;;;3.70;1.85;;;8.90;94.50;;;;;;6047781;23;20391;-83
2021/12/29 09:48:51;;;;;;;3.92;1.73;;;8.90;94.50;;;;;;6043676;23;20020;-83
2021/12/29 09:51:18;;;;;;;3.25;1.67;;;8.90;94.50;;;;;;5988007;23;20023;-83
2021/12/29 09:53:44;;;;;;;3.55;1.80;;;9.00;94.50;;;;;;6035302;23;20014;-83
2021/12/29 09:56:11;;;;;;;2.95;1.73;;;9.00;94.50;;;;;;6122360;23;20333;-83
2021/12/29 09:58:38;;;;;;;3.63;1.67;;;9.00;94.50;;;;;;6156342;23;20005;-83
2021/12/29 10:01:07;;;;;;;2.65;1.58;;;9.00;94.50;;;;;;6146616;23;20013;-83
2021/12/29 10:03:34;;;;;;;2.83;1.55;;;9.00;94.50;;;;;;6156117;23;20005;-81
2021/12/29 10:06:04;;;;;;;3.75;1.60;;;9.10;94.50;;;;;;6133767;23;20012;-83
2021/12/29 10:08:34;;;;;;;4.03;1.80;;;9.00;94.50;;;;;;6122495;23;20311;-84
2021/12/29 10:11:05;;;;;;;3.20;1.92;;;9.10;94.60;;;;;;6093241;23;20093;-83
2021/12/29 10:13:33;;;;;;;3.53;1.52;;;9.10;94.60;;;;;;6069926;23;20006;-84
2021/12/29 10:16:04;;;;;;;3.15;1.60;;;9.10;94.50;;;;;;6117962;23;19999;-83
2021/12/29 10:18:31;;;;;;;5.25;1.90;;;9.10;94.50;;;;;;6125872;23;20434;-84
2021/12/29 10:21:03;;;;;;;4.38;1.52;;;9.10;94.50;;;;;;6101632;23;20002;-87
2021/12/29 10:23:31;;;;;;;2.97;1.60;;;9.20;94.50;;;;;;6075702;23;20437;-86
2021/12/29 10:26:07;;;;;;;2.65;1.55;;;9.20;94.80;;;;;;6096560;23;20013;-87
2021/12/29 10:31:58;;;;;;;3.22;1.77;;;9.20;94.40;;;;;;6177583;23;20048;-82
2021/12/29 10:38:24;;;;;;;3.58;1.85;;;9.30;94.40;;;;;;6063906;23;20038;-80
2021/12/29 10:40:50;;;;;;;3.85;1.98;;;9.20;94.30;;;;;;6063492;23;20420;-81
2021/12/29 10:43:17;;;;;;;4.30;2.00;;;9.30;94.40;;;;;;6063200;23;20093;-81
2021/12/29 10:45:46;;;;;;;4.20;2.00;;;9.30;94.30;;;;;;6063622;23;20026;-81
2021/12/29 10:48:25;;;;;;;3.15;1.85;;;9.20;94.30;;;;;;6063877;23;20011;-85
2021/12/29 10:51:05;;;;;;;3.03;1.90;;;9.40;94.40;;;;;;6040492;23;20022;-85
2021/12/29 10:53:34;;;;;;;3.58;1.90;;;9.40;94.40;;;;;;6038507;23;20007;-86
2021/12/29 10:56:00;;;;;;;3.15;1.70;;;9.40;94.30;;;;;;6014653;23;20066;-85
2021/12/29 10:58:28;;;;;;;2.63;1.58;;;9.40;94.30;;;;;;6030711;23;20011;-85
2021/12/29 11:01:10;;;;;;;3.15;1.70;;;9.60;94.30;;;;;;6029722;23;20455;-85
2021/12/29 11:03:44;;;;;;;3.47;1.67;;;9.50;94.30;;;;;;6040377;23;20093;-86
2021/12/29 11:06:13;;;;;;;2.53;1.65;;;9.50;94.30;;;;;;6029528;23;20089;-86
2021/12/29 11:08:51;;;;;;;2.40;1.67;;;9.50;94.30;;;;;;6029655;23;20021;-86
2021/12/29 11:11:18;;;;;;;1.83;1.00;;;9.50;94.30;;;;;;6029957;23;20058;-86
2021/12/29 11:13:44;;;;;;;3.42;1.40;;;9.50;94.30;;;;;;6029565;23;20065;-86
2021/12/29 11:16:10;;;;;;;2.95;1.40;;;9.50;94.20;;;;;;6084019;23;20096;-86
2021/12/29 11:18:47;;;;;;;2.05;1.35;;;9.50;94.20;;;;;;6093008;23;20045;-86
2021/12/29 11:21:33;;;;;;;3.28;1.67;;;9.50;94.20;;;;;;6093083;23;20010;-86
2021/12/29 11:24:15;;;;;;;2.28;1.50;;;9.60;94.20;;;;;;6096822;23;20013;-86
2021/12/29 11:26:42;;;;;;;2.50;1.60;;;9.60;94.20;;;;;;6117082;23;20021;-86
2021/12/29 11:29:13;;;;;;;2.80;1.67;;;9.60;94.10;;;;;;6092413;23;20014;-85
2021/12/29 11:31:45;;;;;;;2.85;1.52;;;9.60;94.10;;;;;;6092971;23;20018;-86
2021/12/29 11:34:13;;;;;;;2.72;1.52;;;9.60;94.10;;;;;;6091113;23;19998;-86
2021/12/29 11:36:39;;;;;;;3.20;1.65;;;9.50;94.10;;;;;;6116826;23;20029;-86
2021/12/29 11:39:05;;;;;;;2.63;1.52;;;9.60;94.10;;;;;;6092118;23;20080;-86
2021/12/29 11:41:32;;;;;;;2.72;1.42;;;9.60;94.10;;;;;;6067152;23;20033;-85
2021/12/29 11:43:58;;;;;;;2.55;1.40;;;9.60;94.10;;;;;;6116040;23;20418;-86
2021/12/29 11:46:24;;;;;;;5.10;1.98;;;9.60;94.10;;;;;;6120370;23;20014;-86
2021/12/29 11:48:52;;;;;;;2.50;1.60;;;9.60;94.10;;;;;;6092919;23;20063;-85
2021/12/29 11:51:30;;;;;;;2.53;1.50;;;9.60;94.10;;;;;;6092652;23;20017;-86
2021/12/29 11:54:05;;;;;;;2.42;1.48;;;9.60;94.10;;;;;;6094268;23;20014;-85
2021/12/29 11:56:40;;;;;;;4.05;1.52;;;9.60;94.10;;;;;;6092654;23;20009;-85
2021/12/29 11:59:06;;;;;;;2.83;1.40;;;9.60;94.10;;;;;;6094012;23;20002;-85
2021/12/29 12:01:33;;;;;;;2.90;1.70;;;9.60;94.10;;;;;;6092668;23;20079;-86
2021/12/29 12:04:02;;;;;;;2.20;1.35;;;9.70;94.20;;;;;;6091597;23;20016;-85
2021/12/29 12:06:37;;;;;;;1.55;1.15;;;9.60;94.10;;;;;;6118928;23;20009;-85
2021/12/29 12:09:17;;;;;;;1.95;1.25;;;9.60;94.10;;;;;;6070053;23;20018;-85
2021/12/29 12:11:55;;;;;;;1.98;1.08;;;9.60;94.10;;;;;;6096108;23;20402;-85
2021/12/29 12:14:31;;;;;;;2.10;1.25;;;9.60;94.10;;;;;;6092342;23;20010;-85
2021/12/29 12:17:09;;;;;;;1.92;1.17;;;9.50;94.10;;;;;;6094315;23;20385;-86
2021/12/29 12:19:35;;;;;;;2.55;1.30;;;9.60;94.20;;;;;;6070482;23;20039;-85
2021/12/29 12:22:05;;;;;;;4.00;1.30;;;9.70;94.20;;;;;;6092610;23;20002;-85
2021/12/29 12:24:31;;;;;;;2.53;1.02;;;9.60;94.20;;;;;;6118767;23;20002;-85
2021/12/29 12:27:02;;;;;;;1.27;1.00;;;9.60;94.10;;;;;;6094364;23;20010;-85
2021/12/29 12:29:32;;;;;;;1.92;1.20;;;9.70;94.20;;;;;;6118371;23;19998;-85
2021/12/29 12:32:12;;;;;;;1.38;0.88;;;9.70;94.10;;;;;;6094793;23;20026;-85
2021/12/29 12:35:01;;;;;;;1.48;0.95;;;9.70;94.10;;;;;;6072471;23;20002;-85
2021/12/29 12:37:36;;;;;;;2.28;1.30;;;9.60;94.10;;;;;;6071675;23;20333;-85
2021/12/29 12:40:12;;;;;;;2.22;1.23;;;9.70;94.10;;;;;;6097042;23;20002;-85
2021/12/29 12:42:39;;;;;;;3.72;1.38;;;9.70;94.10;;;;;;6118400;23;20057;-85
2021/12/29 12:45:21;;;;;;;0.98;0.90;;;9.60;94.10;;;;;;6094410;23;20422;-85
2021/12/29 12:47:47;;;;;;;2.10;1.08;;;9.70;94.10;;;;;;6095592;23;20010;-85
2021/12/29 12:50:24;;;;;;;2.83;1.40;;;9.60;94.10;;;;;;6093815;23;20096;-85
2021/12/29 12:52:52;;;;;;;2.45;1.25;;;9.70;94.10;;;;;;6099744;23;20006;-85
2021/12/29 12:55:18;;;;;;;2.65;1.27;;;9.60;94.00;;;;;;6095202;23;20373;-85
2021/12/29 12:57:45;;;;;;;2.08;1.17;;;9.60;94.00;;;;;;6118015;23;20014;-85
2021/12/29 13:00:27;;;;;;;1.75;1.10;;;9.60;94.00;;;;;;6093836;23;20101;-86
2021/12/29 13:03:00;;;;;;;2.22;1.27;;;9.60;94.10;;;;;;6097731;23;20009;-86
2021/12/29 13:05:30;;;;;;;1.77;1.23;;;9.70;94.10;;;;;;6070900;23;20017;-85
2021/12/29 13:08:03;;;;;;;1.38;0.90;;;9.60;94.10;;;;;;6094590;23;20006;-86
2021/12/29 13:10:32;;;;;;;2.33;0.98;;;9.60;94.10;;;;;;6117814;23;20025;-85
2021/12/29 13:13:01;;;;;;;2.38;1.30;;;9.60;94.10;;;;;;6094580;23;20380;-86
2021/12/29 13:15:30;;;;;;;2.13;0.90;;;9.70;94.10;;;;;;6094685;23;20085;-84
2021/12/29 13:17:56;;;;;;;2.38;1.30;;;9.60;94.10;;;;;;6118916;23;20014;-84